createdAt,value
2023-02-02T00:01:42.427Z,100002.78
2023-02-02T00:04:12.556Z,100005.06
2023-02-02T00:06:39.694Z,100020.44
2023-02-02T00:09:06.791Z,100014.56
2023-02-02T00:11:34.010Z,100010.09
2023-02-02T00:14:01.209Z,100001.44
2023-02-02T00:16:28.368Z,100036.06
2023-02-02T00:19:01.226Z,100004.63
2023-02-02T00:21:28.640Z,100020.03
2023-02-02T00:23:55.920Z,100005.25
2023-02-02T00:26:23.295Z,99998.28
2023-02-02T00:28:50.396Z,100013.91
2023-02-02T00:31:17.532Z,99999.00
2023-02-02T00:33:45.960Z,100036.28
2023-02-02T00:36:13.017Z,100004.06
2023-02-02T00:38:40.197Z,99984.94
2023-02-02T00:41:07.371Z,99995.22
2023-02-02T00:43:34.903Z,100008.31
2023-02-02T00:46:02.182Z,99989.22
2023-02-02T00:48:29.356Z,99999.47
2023-02-02T00:50:57.372Z,99993.41
2023-02-02T00:53:24.505Z,99994.19
2023-02-02T00:55:51.643Z,100016.78
2023-02-02T00:58:18.785Z,99987.16
2023-02-02T01:01:18.032Z,100003.75
2023-02-02T01:03:45.212Z,100010.66
2023-02-02T01:06:13.043Z,100005.41
2023-02-02T01:08:40.422Z,100014.88
2023-02-02T01:11:08.104Z,100021.06
2023-02-02T01:13:35.793Z,100013.25
2023-02-02T01:16:03.621Z,100016.00
2023-02-02T01:18:31.338Z,100009.03
2023-02-02T01:21:03.657Z,100000.38
2023-02-02T01:23:31.168Z,100011.88
2023-02-02T01:25:59.956Z,100006.63
2023-02-02T01:28:27.744Z,99997.16
2023-02-02T01:30:55.234Z,100027.38
2023-02-02T01:33:23.344Z,100020.47
2023-02-02T01:35:52.696Z,100025.88
2023-02-02T01:38:20.696Z,100003.34
2023-02-02T01:40:53.033Z,100003.41
2023-02-02T01:43:41.344Z,99997.34
2023-02-02T01:46:13.238Z,100006.72
2023-02-02T01:48:43.066Z,100001.53
2023-02-02T01:51:14.893Z,99995.47
2023-02-02T01:53:42.428Z,100020.53
2023-02-02T01:56:12.957Z,99998.72
2023-02-02T01:58:41.828Z,99998.47
2023-02-02T02:01:09.054Z,100023.75
2023-02-02T02:03:37.358Z,100030.06
2023-02-02T02:06:10.724Z,100030.81
2023-02-02T02:08:58.741Z,100035.19
2023-02-02T02:11:26.494Z,100024.66
2023-02-02T02:14:14.866Z,100028.16
2023-02-02T02:17:19.707Z,100036.84
2023-02-02T02:20:36.868Z,100018.34
2023-02-02T02:23:37.459Z,100029.59
2023-02-02T02:26:39.558Z,100040.41
2023-02-02T02:29:28.498Z,100037.88
2023-02-02T02:32:01.189Z,100056.94
2023-02-02T02:34:52.952Z,100051.69
2023-02-02T02:37:40.050Z,100061.97
2023-02-02T02:40:07.396Z,100052.16
2023-02-02T02:42:39.307Z,100091.25
2023-02-02T02:45:07.991Z,100065.94
2023-02-02T02:47:36.119Z,100074.56
2023-02-02T02:50:04.244Z,100074.31
2023-02-02T02:52:32.406Z,100074.38
2023-02-02T02:55:01.159Z,100043.88
2023-02-02T02:57:58.822Z,100044.53
2023-02-02T03:00:48.788Z,100070.53
2023-02-02T03:03:22.368Z,100057.69
2023-02-02T03:05:57.908Z,100078.41
2023-02-02T03:08:33.224Z,100080.28
2023-02-02T03:11:02.264Z,100096.78
2023-02-02T03:13:29.703Z,100089.03
2023-02-02T03:15:56.796Z,100090.59
2023-02-02T03:18:27.232Z,100087.88
2023-02-02T03:20:54.336Z,100103.31
2023-02-02T03:23:21.560Z,100105.72
2023-02-02T03:25:48.901Z,100130.28
2023-02-02T03:28:17.620Z,100113.66
2023-02-02T03:30:46.217Z,100113.84
2023-02-02T03:33:14.722Z,100129.50
2023-02-02T03:35:42.035Z,100142.47
2023-02-02T03:38:09.186Z,100139.69
2023-02-02T03:40:36.329Z,100150.09
2023-02-02T03:43:03.539Z,100144.94
2023-02-02T03:45:32.026Z,100157.94
2023-02-02T03:47:59.228Z,100161.56
2023-02-02T03:50:26.346Z,100171.25
2023-02-02T03:52:54.702Z,100161.78
2023-02-02T03:55:22.193Z,100170.34
2023-02-02T03:57:49.715Z,100175.81
2023-02-02T04:00:17.004Z,100186.28
2023-02-02T04:02:44.183Z,100201.06
2023-02-02T04:05:11.272Z,100201.06
2023-02-02T04:07:38.382Z,100199.38
2023-02-02T04:10:05.803Z,100207.97
2023-02-02T04:12:32.931Z,100214.06
2023-02-02T04:15:00.117Z,100228.06
2023-02-02T04:17:27.243Z,100226.38
2023-02-02T04:19:58.053Z,100228.16
2023-02-02T04:22:26.067Z,100240.16
2023-02-02T04:24:53.412Z,100239.31
2023-02-02T04:27:20.619Z,100249.56
2023-02-02T04:29:47.736Z,100254.88
2023-02-02T04:32:16.134Z,100255.88
2023-02-02T04:34:43.606Z,100265.50
2023-02-02T04:37:11.135Z,100272.34
2023-02-02T04:39:38.244Z,100264.53
2023-02-02T04:42:06.708Z,100276.66
2023-02-02T04:44:33.903Z,100292.09
2023-02-02T04:47:01.057Z,100276.53
2023-02-02T04:49:28.222Z,100275.69
2023-02-02T04:51:55.364Z,100278.34
2023-02-02T04:54:22.481Z,100289.56
2023-02-02T04:56:49.568Z,100293.88
2023-02-02T04:59:16.720Z,100302.72
2023-02-02T05:01:43.987Z,100293.78
2023-02-02T05:04:11.579Z,100309.41
2023-02-02T05:06:38.732Z,100310.41
2023-02-02T05:09:05.905Z,100303.28
2023-02-02T05:11:33.187Z,100320.66
2023-02-02T05:14:00.374Z,100322.31
2023-02-02T05:16:29.058Z,100331.28
2023-02-02T05:18:59.275Z,100330.47
2023-02-02T05:21:26.808Z,100338.44
2023-02-02T05:23:54.207Z,100350.59
2023-02-02T05:26:23.458Z,100342.81
2023-02-02T05:28:50.646Z,100349.78
2023-02-02T05:31:18.029Z,100351.47
2023-02-02T05:33:45.725Z,100358.44
2023-02-02T05:36:13.128Z,100377.59
2023-02-02T05:38:40.286Z,100369.91
2023-02-02T05:41:07.413Z,100373.25
2023-02-02T05:43:34.832Z,100375.06
2023-02-02T05:46:02.071Z,100385.09
2023-02-02T05:48:29.379Z,100383.31
2023-02-02T05:51:01.217Z,100384.16
2023-02-02T05:53:30.206Z,100385.00
2023-02-02T05:55:57.351Z,100389.56
2023-02-02T05:58:24.502Z,100394.00
2023-02-02T06:00:51.885Z,100407.97
2023-02-02T06:03:19.452Z,100407.19
2023-02-02T06:05:46.683Z,100408.88
2023-02-02T06:08:13.761Z,100422.88
2023-02-02T06:10:41.903Z,100412.34
2023-02-02T06:13:09.264Z,100423.72
2023-02-02T06:15:36.652Z,100423.56
2023-02-02T06:18:06.551Z,100427.97
2023-02-02T06:20:34.006Z,100434.19
2023-02-02T06:23:01.151Z,100447.22
2023-02-02T06:25:28.433Z,100458.56
2023-02-02T06:27:59.603Z,100441.97
2023-02-02T06:30:27.531Z,100455.03
2023-02-02T06:32:54.754Z,100461.16
2023-02-02T06:35:21.956Z,100457.63
2023-02-02T06:37:49.190Z,100457.63
2023-02-02T06:40:16.635Z,100463.84
2023-02-02T06:42:43.761Z,100472.28
2023-02-02T06:45:11.089Z,100487.97
2023-02-02T06:47:38.170Z,100480.00
2023-02-02T06:50:05.399Z,100482.81
2023-02-02T06:52:32.508Z,100488.13
2023-02-02T06:54:59.613Z,100504.63
2023-02-02T06:57:26.786Z,100501.16
2023-02-02T06:59:53.968Z,100501.25
2023-02-02T07:02:23.251Z,100499.31
2023-02-02T07:04:51.176Z,100501.91
2023-02-02T07:07:18.300Z,100522.78
2023-02-02T07:09:45.447Z,100529.75
2023-02-02T07:12:12.597Z,100535.19
2023-02-02T07:14:39.701Z,100517.88
2023-02-02T07:17:06.829Z,100540.47
2023-02-02T07:19:35.136Z,100541.34
2023-02-02T07:22:02.272Z,100546.53
2023-02-02T07:24:29.539Z,100561.34
2023-02-02T07:26:57.964Z,100559.44
2023-02-02T07:29:25.247Z,100563.69
2023-02-02T07:31:52.451Z,100573.31
2023-02-02T07:34:19.611Z,100575.03
2023-02-02T07:36:46.724Z,100578.41
2023-02-02T07:39:13.969Z,100575.91
2023-02-02T07:41:41.213Z,100576.13
2023-02-02T07:44:15.310Z,100573.66
2023-02-02T07:46:43.990Z,100584.94
2023-02-02T07:49:14.447Z,100586.00
2023-02-02T07:51:46.373Z,100579.88
2023-02-02T07:54:15.141Z,100594.59
2023-02-02T07:56:42.264Z,100608.31
2023-02-02T07:59:10.898Z,100597.19
2023-02-02T08:01:38.113Z,100605.88
2023-02-02T08:04:05.540Z,100601.28
2023-02-02T08:06:35.183Z,100609.91
2023-02-02T08:09:04.125Z,100616.13
2023-02-02T08:11:31.519Z,100618.63
2023-02-02T08:14:00.133Z,100627.31
2023-02-02T08:16:28.780Z,100634.28
2023-02-02T08:18:56.445Z,100637.66
2023-02-02T08:21:24.108Z,100627.03
2023-02-02T08:23:52.558Z,100646.19
2023-02-02T08:26:28.297Z,100634.75
2023-02-02T08:28:56.226Z,100638.06
2023-02-02T08:31:43.747Z,100648.47
2023-02-02T08:34:12.283Z,100643.97
2023-02-02T08:36:39.566Z,100654.22
2023-02-02T08:39:09.933Z,100645.38
2023-02-02T08:41:37.604Z,100629.44
2023-02-02T08:44:11.181Z,100646.00
2023-02-02T08:46:38.577Z,100647.72
2023-02-02T08:49:05.777Z,100646.00
2023-02-02T08:51:32.895Z,100653.78
2023-02-02T08:53:59.981Z,100667.50
2023-02-02T08:56:27.172Z,100656.06
2023-02-02T08:58:56.448Z,100670.94
2023-02-02T09:01:24.580Z,100662.88
2023-02-02T09:04:00.085Z,100666.84
2023-02-02T09:06:40.771Z,100686.63
2023-02-02T09:09:10.561Z,100671.81
2023-02-02T09:11:37.777Z,100683.19
2023-02-02T09:14:06.560Z,100693.50
2023-02-02T09:16:34.786Z,100684.53
2023-02-02T09:19:02.288Z,100690.91
2023-02-02T09:21:30.457Z,100704.91
2023-02-02T09:23:57.617Z,100709.25
2023-02-02T09:26:26.939Z,100708.94
2023-02-02T09:28:56.297Z,100721.22
2023-02-02T09:31:24.333Z,100710.88
2023-02-02T09:33:51.506Z,100721.25
2023-02-02T09:36:21.237Z,100730.88
2023-02-02T09:38:49.593Z,100726.28
2023-02-02T09:41:16.602Z,100737.25
2023-02-02T09:43:55.147Z,100739.84
2023-02-02T09:46:45.254Z,100739.44
2023-02-02T09:49:16.614Z,100732.78
2023-02-02T09:51:49.140Z,100740.38
2023-02-02T09:54:21.208Z,100743.22
2023-02-02T09:56:51.310Z,100748.38
2023-02-02T09:59:24.761Z,100747.59
2023-02-02T10:01:58.068Z,100750.16
2023-02-02T10:04:40.031Z,100755.22
2023-02-02T10:07:20.493Z,100758.66
2023-02-02T10:09:59.946Z,100749.00
2023-02-02T10:12:47.297Z,100766.47
2023-02-02T10:15:18.650Z,100753.34
2023-02-02T10:17:57.746Z,100759.34
2023-02-02T10:20:44.686Z,100749.31
2023-02-02T10:23:38.483Z,100768.69
2023-02-02T10:26:19.229Z,100768.81
2023-02-02T10:29:08.929Z,100769.69
2023-02-02T10:31:49.661Z,100772.97
2023-02-02T10:34:31.910Z,100768.53
2023-02-02T10:37:34.625Z,100776.22
2023-02-02T10:40:10.602Z,100778.47
2023-02-02T10:42:45.433Z,100776.97
2023-02-02T10:45:18.725Z,100776.63
2023-02-02T10:47:45.849Z,100769.22
2023-02-02T10:50:13.055Z,100776.00
2023-02-02T10:52:46.565Z,100779.53
2023-02-02T10:55:19.456Z,100783.06
2023-02-02T10:58:03.212Z,100794.72
2023-02-02T11:00:46.223Z,100794.50
2023-02-02T11:03:15.108Z,100799.97
2023-02-02T11:06:01.386Z,100803.75
2023-02-02T11:08:33.178Z,100808.81
2023-02-02T11:11:22.469Z,100801.72
2023-02-02T11:13:51.980Z,100810.41
2023-02-02T11:16:22.039Z,100806.94
2023-02-02T11:18:49.451Z,100815.19
2023-02-02T11:21:29.815Z,100820.13
2023-02-02T11:24:03.659Z,100821.72
2023-02-02T11:26:48.957Z,100816.50
2023-02-02T11:29:33.742Z,100837.44
2023-02-02T11:32:27.383Z,100843.47
2023-02-02T11:35:06.435Z,100849.16
2023-02-02T11:37:53.048Z,100842.88
2023-02-02T11:40:24.331Z,100849.50
2023-02-02T11:42:53.068Z,100837.47
2023-02-02T11:45:35.343Z,100854.56
2023-02-02T11:48:08.189Z,100838.88
2023-02-02T11:50:35.501Z,100852.69
2023-02-02T11:53:02.753Z,100854.31
2023-02-02T11:55:31.544Z,100845.69
2023-02-02T11:58:18.324Z,100852.59
2023-02-02T12:00:54.695Z,100857.09
2023-02-02T12:03:39.140Z,100861.72
2023-02-02T12:06:27.670Z,100872.19
2023-02-02T12:09:01.253Z,100868.72
2023-02-02T12:11:52.789Z,100877.69
2023-02-02T12:15:03.014Z,100883.06
2023-02-02T12:17:44.637Z,100887.41
2023-02-02T12:20:49.258Z,100898.63
2023-02-02T12:23:34.931Z,100908.41
2023-02-02T12:26:10.874Z,100916.25
2023-02-02T12:28:49.609Z,100908.84
2023-02-02T12:31:16.733Z,100926.56
2023-02-02T12:34:01.963Z,100917.63
2023-02-02T12:36:38.698Z,100925.69
2023-02-02T12:39:24.321Z,100919.47
2023-02-02T12:42:13.432Z,100908.44
2023-02-02T12:44:50.973Z,100906.47
2023-02-02T12:47:28.356Z,100901.97
2023-02-02T12:50:12.023Z,100917.47
2023-02-02T12:52:45.072Z,100916.97
2023-02-02T12:55:24.952Z,100908.91
2023-02-02T12:58:06.313Z,100922.78
2023-02-02T13:00:50.240Z,100923.34
2023-02-02T13:03:27.710Z,100915.25
2023-02-02T13:06:53.887Z,100934.00
2023-02-02T13:09:27.484Z,100939.56
2023-02-02T13:12:01.134Z,100938.38
2023-02-02T13:14:57.476Z,100945.22
2023-02-02T13:17:41.084Z,100945.03
2023-02-02T13:20:21.457Z,100953.75
2023-02-02T13:22:52.091Z,100962.84
2023-02-02T13:25:27.035Z,100968.16
2023-02-02T13:27:54.832Z,100980.50
2023-02-02T13:30:31.755Z,100970.88
2023-02-02T13:33:01.348Z,100973.88
2023-02-02T13:35:36.778Z,100992.38
2023-02-02T13:38:22.432Z,101001.00
2023-02-02T13:40:50.665Z,101002.50
2023-02-02T13:43:21.772Z,101006.91
2023-02-02T13:46:24.237Z,101018.34
2023-02-02T13:49:02.036Z,101020.69
2023-02-02T13:51:54.725Z,101022.81
2023-02-02T13:55:02.498Z,101019.09
2023-02-02T13:57:52.863Z,101026.25
2023-02-02T14:00:24.249Z,101042.38
2023-02-02T14:02:55.376Z,101049.50
2023-02-02T14:05:22.529Z,101053.03
2023-02-02T14:08:01.916Z,101054.00
2023-02-02T14:10:42.663Z,101066.25
2023-02-02T14:13:36.673Z,101070.72
2023-02-02T14:16:06.074Z,101068.72
2023-02-02T14:18:51.387Z,101078.78
2023-02-02T14:21:33.498Z,101089.00
2023-02-02T14:24:05.024Z,101092.13
2023-02-02T14:26:48.525Z,101098.81
2023-02-02T14:29:35.947Z,101105.66
2023-02-02T14:32:06.681Z,101115.00
2023-02-02T14:34:39.264Z,101122.69
2023-02-02T14:37:24.525Z,101123.97
2023-02-02T14:40:06.474Z,101133.06
2023-02-02T14:42:58.038Z,101133.88
2023-02-02T14:45:51.156Z,101142.50
2023-02-02T14:48:23.894Z,101145.47
2023-02-02T14:50:58.463Z,101152.28
2023-02-02T14:53:29.354Z,101157.97
2023-02-02T14:56:05.426Z,101163.00
2023-02-02T14:58:43.900Z,101173.16
2023-02-02T15:01:25.420Z,101175.72
2023-02-02T15:04:14.103Z,101181.94
2023-02-02T15:06:43.033Z,101181.28
2023-02-02T15:09:29.052Z,101185.06
2023-02-02T15:12:00.819Z,101195.34
2023-02-02T15:14:34.214Z,101205.84
2023-02-02T15:17:20.241Z,101210.09
2023-02-02T15:20:05.300Z,101216.47
2023-02-02T15:22:43.068Z,101221.56
2023-02-02T15:25:31.352Z,101221.16
2023-02-02T15:28:01.407Z,101230.78
2023-02-02T15:30:33.503Z,101233.66
2023-02-02T15:33:08.036Z,101241.66
2023-02-02T15:35:37.940Z,101246.69
2023-02-02T15:38:07.360Z,101250.50
2023-02-02T15:40:36.497Z,101253.06
2023-02-02T15:43:06.217Z,101263.56
2023-02-02T15:45:54.737Z,101266.34
2023-02-02T15:48:30.118Z,101281.69
2023-02-02T15:51:00.442Z,101283.72
2023-02-02T15:53:28.749Z,101289.81
2023-02-02T15:55:57.274Z,101298.50
2023-02-02T15:58:32.772Z,101296.78
2023-02-02T16:01:05.728Z,101303.06
2023-02-02T16:03:46.811Z,101314.59
2023-02-02T16:06:13.931Z,101314.19
2023-02-02T16:08:41.842Z,101322.16
2023-02-02T16:11:12.626Z,101331.88
2023-02-02T16:13:40.626Z,101331.88
2023-02-02T16:16:22.792Z,101342.81
2023-02-02T16:19:05.395Z,101342.16
2023-02-02T16:21:33.260Z,101354.34
2023-02-02T16:24:00.753Z,101356.84
2023-02-02T16:26:29.664Z,101369.97
2023-02-02T16:28:57.087Z,101373.53
2023-02-02T16:31:24.777Z,101380.75
2023-02-02T16:33:51.955Z,101385.56
2023-02-02T16:36:29.526Z,101386.47
2023-02-02T16:38:58.315Z,101398.78
2023-02-02T16:41:29.998Z,101403.88
2023-02-02T16:44:35.647Z,101403.94
2023-02-02T16:47:04.406Z,101411.88
2023-02-02T16:49:31.575Z,101415.34
2023-02-02T16:52:09.322Z,101416.34
2023-02-02T16:54:36.674Z,101416.53
2023-02-02T16:57:04.327Z,101419.41
2023-02-02T16:59:33.931Z,101418.69
2023-02-02T17:02:26.521Z,101426.47
2023-02-02T17:05:05.964Z,101430.00
2023-02-02T17:07:35.039Z,101432.63
2023-02-02T17:10:19.243Z,101431.00
2023-02-02T17:12:46.433Z,101439.84
2023-02-02T17:15:16.414Z,101443.31
2023-02-02T17:17:48.367Z,101449.44
2023-02-02T17:20:16.888Z,101446.00
2023-02-02T17:22:46.716Z,101451.25
2023-02-02T17:25:18.773Z,101461.78
2023-02-02T17:27:46.530Z,101463.63
2023-02-02T17:30:16.854Z,101461.88
2023-02-02T17:32:44.171Z,101461.06
2023-02-02T17:35:16.496Z,101468.13
2023-02-02T17:37:43.829Z,101467.25
2023-02-02T17:40:17.426Z,101475.13
2023-02-02T17:42:45.481Z,101480.34
2023-02-02T17:45:24.808Z,101481.22
2023-02-02T17:47:52.263Z,101485.59
2023-02-02T17:50:20.680Z,101497.81
2023-02-02T17:52:49.624Z,101501.31
2023-02-02T17:55:23.821Z,101498.81
2023-02-02T17:57:52.194Z,101498.13
2023-02-02T18:00:22.423Z,101503.34
2023-02-02T18:02:51.994Z,101506.00
2023-02-02T18:05:19.443Z,101499.94
2023-02-02T18:07:46.853Z,101493.00
2023-02-02T18:10:14.904Z,101500.88
2023-02-02T18:12:42.348Z,101511.34
2023-02-02T18:15:13.156Z,101507.88
2023-02-02T18:17:40.900Z,101505.34
2023-02-02T18:20:09.108Z,101510.72
2023-02-02T18:22:36.252Z,101507.25
2023-02-02T18:25:04.849Z,101501.16
2023-02-02T18:27:32.195Z,101506.34
2023-02-02T18:29:59.336Z,101510.81
2023-02-02T18:32:26.575Z,101513.44
2023-02-02T18:34:55.942Z,101515.22
2023-02-02T18:37:25.672Z,101511.75
2023-02-02T18:39:53.899Z,101511.75
2023-02-02T18:42:21.171Z,101514.38
2023-02-02T18:44:48.316Z,101506.63
2023-02-02T18:47:15.456Z,101506.63
2023-02-02T18:49:42.653Z,101509.22
2023-02-02T18:52:09.787Z,101507.50
2023-02-02T18:54:37.065Z,101514.50
2023-02-02T18:57:04.140Z,101509.28
2023-02-02T18:59:32.249Z,101508.47
2023-02-02T19:01:59.502Z,101502.47
2023-02-02T19:04:26.668Z,101504.22
2023-02-02T19:07:12.593Z,101509.47
2023-02-02T19:09:39.871Z,101499.94
2023-02-02T19:12:14.011Z,101501.69
2023-02-02T19:14:42.413Z,101505.16
2023-02-02T19:17:24.533Z,101500.88
2023-02-02T19:19:51.935Z,101511.28
2023-02-02T19:22:23.672Z,101518.22
2023-02-02T19:24:51.218Z,101522.63
2023-02-02T19:27:26.604Z,101514.84
2023-02-02T19:29:56.213Z,101518.38
2023-02-02T19:32:25.720Z,101523.66
2023-02-02T19:34:54.285Z,101523.66
2023-02-02T19:37:29.159Z,101520.28
2023-02-02T19:40:08.211Z,101525.47
2023-02-02T19:42:37.755Z,101526.34
2023-02-02T19:45:21.255Z,101527.16
2023-02-02T19:47:51.058Z,101515.03
2023-02-02T19:50:22.796Z,101526.31
2023-02-02T19:52:50.426Z,101515.94
2023-02-02T19:55:28.306Z,101522.88
2023-02-02T19:58:01.346Z,101526.41
2023-02-02T20:00:30.176Z,101532.44
2023-02-02T20:03:02.507Z,101534.19
2023-02-02T20:05:39.810Z,101533.41
2023-02-02T20:08:12.865Z,101527.41
2023-02-02T20:10:44.398Z,101529.13
2023-02-02T20:13:42.591Z,101535.16
2023-02-02T20:16:19.026Z,101526.47
2023-02-02T20:18:53.742Z,101535.16
2023-02-02T20:21:41.687Z,101537.84
2023-02-02T20:24:18.831Z,101528.34
2023-02-02T20:26:46.411Z,101537.03
2023-02-02T20:29:18.151Z,101544.91
2023-02-02T20:31:46.510Z,101544.09
2023-02-02T20:34:33.616Z,101545.78
2023-02-02T20:37:12.573Z,101536.25
2023-02-02T20:39:49.851Z,101527.59
2023-02-02T20:42:17.051Z,101523.28
2023-02-02T20:44:44.264Z,101527.63
2023-02-02T20:47:11.444Z,101532.78
2023-02-02T20:49:39.222Z,101533.59
2023-02-02T20:52:10.928Z,101522.38
2023-02-02T20:54:38.987Z,101518.00
2023-02-02T20:57:06.284Z,101519.72
2023-02-02T20:59:33.460Z,101522.31
2023-02-02T21:02:00.744Z,101518.88
2023-02-02T21:04:28.310Z,101513.63
2023-02-02T21:06:55.506Z,101510.19
2023-02-02T21:09:22.708Z,101511.94
2023-02-02T21:11:49.809Z,101506.72
2023-02-02T21:14:17.035Z,101509.25
2023-02-02T21:16:44.266Z,101504.06
2023-02-02T21:19:11.472Z,101502.28
2023-02-02T21:21:38.742Z,101503.13
2023-02-02T21:24:05.936Z,101498.84
2023-02-02T21:26:33.212Z,101497.13
2023-02-02T21:29:00.342Z,101496.34
2023-02-02T21:31:27.774Z,101495.50
2023-02-02T21:33:54.974Z,101492.06
2023-02-02T21:36:44.639Z,101492.16
2023-02-02T21:39:21.919Z,101491.28
2023-02-02T21:41:50.222Z,101490.41
2023-02-02T21:44:20.109Z,101485.22
2023-02-02T21:46:49.117Z,101480.94
2023-02-02T21:49:21.552Z,101474.84
2023-02-02T21:51:48.692Z,101479.19
2023-02-02T21:54:21.645Z,101482.63
2023-02-02T21:56:49.219Z,101480.03
2023-02-02T21:59:19.008Z,101482.59
2023-02-02T22:01:48.268Z,101477.34
2023-02-02T22:04:25.536Z,101483.44
2023-02-02T22:06:55.018Z,101475.63
2023-02-02T22:09:25.228Z,101466.13
2023-02-02T22:11:56.533Z,101461.00
2023-02-02T22:14:41.309Z,101457.50
2023-02-02T22:17:37.698Z,101448.75
2023-02-02T22:20:17.989Z,101458.22
2023-02-02T22:22:47.409Z,101462.53
2023-02-02T22:25:24.018Z,101461.63
2023-02-02T22:27:53.436Z,101452.13
2023-02-02T22:30:26.424Z,101451.28
2023-02-02T22:32:58.115Z,101456.63
2023-02-02T22:35:28.707Z,101454.88
2023-02-02T22:37:56.533Z,101462.63
2023-02-02T22:40:26.351Z,101465.25
2023-02-02T22:43:00.935Z,101461.81
2023-02-02T22:45:29.641Z,101459.16
2023-02-02T22:47:57.947Z,101460.84
2023-02-02T22:50:29.455Z,101462.50
2023-02-02T22:52:57.258Z,101454.72
2023-02-02T22:55:24.960Z,101452.97
2023-02-02T22:57:53.024Z,101466.81
2023-02-02T23:00:46.184Z,101464.19
2023-02-02T23:03:16.895Z,101458.16
2023-02-02T23:05:44.498Z,101456.34
2023-02-02T23:08:12.248Z,101454.59
2023-02-02T23:11:13.195Z,101454.53
2023-02-02T23:13:40.794Z,101449.38
2023-02-02T23:17:05.881Z,101452.84
2023-02-02T23:19:44.510Z,101447.72
2023-02-02T23:22:12.031Z,101446.91
2023-02-02T23:24:42.505Z,101441.63
2023-02-02T23:27:10.326Z,101439.00
2023-02-02T23:29:38.035Z,101432.09
2023-02-02T23:32:06.091Z,101439.94
2023-02-02T23:34:34.460Z,101428.72
2023-02-02T23:37:02.042Z,101439.09
2023-02-02T23:39:29.921Z,101433.06
2023-02-02T23:42:04.978Z,101422.66
2023-02-02T23:44:41.525Z,101418.31
2023-02-02T23:47:09.621Z,101403.63
2023-02-02T23:49:37.697Z,101398.34
2023-02-02T23:52:05.795Z,101395.75
2023-02-02T23:54:53.199Z,101399.22
2023-02-02T23:57:21.160Z,101394.84
2023-02-02T23:59:48.896Z,101392.09
